Time;durP1;ratioP1;P1;durP2;ratioP2;P2;SDS_P1;SDS_P2;PMS_P1;PMS_P2;Temp;Humidity;BMP_temperature;BMP_pressure;BME280_temperature;BME280_humidity;BME280_pressure;Samples;Min_cycle;Max_cycle;Signal;HPM_P1;HPM_P2
2022/10/26 00:00:41;;;;;;;10.65;5.53;;;11.70;99.90;;;;;;5075038;28;20031;-78
2022/10/26 00:03:07;;;;;;;9.45;5.60;;;11.70;99.90;;;;;;5074874;28;20032;-78
2022/10/26 00:05:33;;;;;;;10.50;5.65;;;11.80;99.90;;;;;;5074908;28;20450;-78
2022/10/26 00:08:00;;;;;;;12.65;5.70;;;11.70;99.90;;;;;;5074694;28;20043;-78
2022/10/26 00:10:25;;;;;;;9.98;5.32;;;11.80;99.90;;;;;;5074711;28;20029;-78
2022/10/26 00:12:51;;;;;;;11.85;6.28;;;11.70;99.90;;;;;;5075847;28;20033;-78
2022/10/26 00:15:18;;;;;;;10.68;5.88;;;11.80;99.90;;;;;;5074438;28;20500;-78
2022/10/26 00:17:45;;;;;;;9.48;5.82;;;11.70;99.90;;;;;;5075764;28;20055;-78
2022/10/26 00:20:11;;;;;;;12.43;6.47;;;11.80;99.90;;;;;;5074586;28;20021;-79
2022/10/26 00:22:36;;;;;;;11.13;6.43;;;11.80;99.90;;;;;;5074743;28;20043;-77
2022/10/26 00:25:02;;;;;;;13.48;6.38;;;11.80;99.90;;;;;;5057854;28;20112;-77
2022/10/26 00:27:28;;;;;;;13.07;7.07;;;11.80;99.90;;;;;;5058437;28;20040;-77
2022/10/26 00:29:57;;;;;;;13.90;6.60;;;11.80;99.90;;;;;;5058383;28;20033;-77
2022/10/26 00:32:22;;;;;;;11.68;6.45;;;11.80;99.90;;;;;;5041474;28;20024;-78
2022/10/26 00:34:48;;;;;;;14.15;6.85;;;11.80;99.90;;;;;;5074403;28;20051;-78
2022/10/26 00:37:13;;;;;;;11.80;7.05;;;11.80;99.90;;;;;;5040907;28;20032;-78
2022/10/26 00:39:39;;;;;;;13.45;7.63;;;11.80;99.90;;;;;;5057032;28;20029;-78
2022/10/26 00:42:04;;;;;;;13.38;7.40;;;11.70;99.90;;;;;;5057320;28;20025;-78
2022/10/26 00:44:45;;;;;;;12.02;6.43;;;11.80;99.90;;;;;;5057510;28;20024;-78
2022/10/26 00:47:17;;;;;;;14.10;7.18;;;11.80;99.90;;;;;;5074040;28;20056;-78
2022/10/26 00:49:46;;;;;;;9.98;6.60;;;11.80;99.90;;;;;;5075441;28;20029;-78
2022/10/26 00:52:13;;;;;;;11.13;5.82;;;11.80;99.90;;;;;;5076094;28;20029;-78
2022/10/26 00:54:40;;;;;;;10.50;5.72;;;11.80;99.90;;;;;;5057256;28;20123;-78
2022/10/26 00:57:06;;;;;;;10.23;6.57;;;11.80;99.90;;;;;;5073755;28;20028;-78
2022/10/26 00:59:32;;;;;;;11.32;5.95;;;11.90;99.90;;;;;;5075057;28;20439;-78
2022/10/26 01:01:58;;;;;;;14.43;6.50;;;11.90;99.90;;;;;;5073790;28;20061;-78
2022/10/26 01:04:23;;;;;;;12.70;7.13;;;11.90;99.90;;;;;;5057176;28;20025;-78
2022/10/26 01:06:51;;;;;;;10.23;6.53;;;11.90;99.90;;;;;;5073676;28;20078;-78
2022/10/26 01:09:19;;;;;;;11.77;6.72;;;12.00;99.90;;;;;;5074966;28;20024;-78
2022/10/26 01:11:44;;;;;;;9.70;6.38;;;12.00;99.90;;;;;;5040483;28;20032;-78
2022/10/26 01:14:12;;;;;;;15.07;7.00;;;11.90;99.90;;;;;;5074762;28;20537;-78
2022/10/26 01:16:59;;;;;;;11.95;6.60;;;12.00;99.90;;;;;;5074490;28;20052;-78
2022/10/26 01:19:30;;;;;;;12.35;7.20;;;12.00;99.90;;;;;;5074692;28;20104;-78
2022/10/26 01:22:04;;;;;;;10.05;6.22;;;12.00;99.90;;;;;;5073268;28;20078;-78
2022/10/26 01:24:57;;;;;;;11.75;5.50;;;12.00;99.90;;;;;;5073214;28;20024;-77
2022/10/26 01:27:39;;;;;;;11.40;6.15;;;12.00;99.90;;;;;;5073234;28;20083;-78
2022/10/26 01:30:47;;;;;;;10.35;5.68;;;12.00;99.90;;;;;;5073169;28;20024;-78
2022/10/26 01:33:16;;;;;;;10.15;6.10;;;12.00;99.90;;;;;;5019823;28;20040;-78
2022/10/26 01:35:50;;;;;;;10.90;5.97;;;12.00;99.90;;;;;;5073327;28;20040;-78
2022/10/26 01:38:41;;;;;;;10.18;5.35;;;12.00;99.90;;;;;;5074258;28;20447;-79
2022/10/26 01:41:31;;;;;;;9.95;6.47;;;12.00;99.90;;;;;;5072874;28;20127;-79
2022/10/26 01:44:11;;;;;;;14.80;5.70;;;12.00;99.90;;;;;;5074312;28;20095;-80
2022/10/26 01:46:41;;;;;;;11.65;5.25;;;12.00;99.90;;;;;;5089750;28;20016;-79
2022/10/26 01:49:11;;;;;;;15.75;6.82;;;12.00;99.90;;;;;;5072811;28;20062;-79
2022/10/26 01:51:39;;;;;;;16.50;6.00;;;12.00;99.90;;;;;;5072674;28;20380;-80
2022/10/26 01:54:05;;;;;;;14.13;5.78;;;12.00;99.90;;;;;;5073248;28;20016;-80
2022/10/26 01:56:35;;;;;;;12.10;5.25;;;12.00;99.90;;;;;;5072661;28;20021;-78
2022/10/26 01:59:01;;;;;;;10.25;5.38;;;12.00;99.90;;;;;;5073964;28;20016;-78
2022/10/26 02:01:32;;;;;;;12.75;5.65;;;12.00;99.90;;;;;;5072528;28;20119;-78
2022/10/26 02:04:21;;;;;;;10.80;5.65;;;12.00;99.90;;;;;;5073190;28;20024;-78
2022/10/26 02:06:59;;;;;;;11.50;5.80;;;12.00;99.90;;;;;;5072528;28;20056;-78
2022/10/26 02:09:40;;;;;;;9.05;5.32;;;12.00;99.90;;;;;;5072474;28;20032;-78
2022/10/26 02:12:39;;;;;;;14.07;5.90;;;12.10;99.90;;;;;;5089434;28;20512;-78
2022/10/26 02:15:14;;;;;;;14.88;7.07;;;12.00;99.90;;;;;;5035001;28;20036;-78
2022/10/26 02:17:54;;;;;;;11.13;5.78;;;12.00;99.90;;;;;;5073756;28;20039;-78
2022/10/26 02:20:26;;;;;;;13.25;6.43;;;12.00;99.90;;;;;;5073555;28;20092;-78
2022/10/26 02:22:54;;;;;;;9.73;5.50;;;12.00;99.90;;;;;;5072503;28;20050;-78
2022/10/26 02:25:24;;;;;;;10.48;6.35;;;12.00;99.90;;;;;;5072275;28;20021;-78
2022/10/26 02:28:01;;;;;;;12.85;6.75;;;12.10;99.90;;;;;;5072278;28;20052;-78
2022/10/26 02:30:27;;;;;;;14.43;6.13;;;12.10;99.90;;;;;;5073475;28;20033;-78
2022/10/26 02:32:56;;;;;;;11.80;5.53;;;12.10;99.90;;;;;;5072167;28;20103;-78
2022/10/26 02:35:28;;;;;;;11.82;5.43;;;12.10;99.90;;;;;;5073693;28;20530;-78
2022/10/26 02:37:55;;;;;;;12.60;5.50;;;12.10;99.90;;;;;;5072016;28;20377;-78
2022/10/26 02:40:24;;;;;;;10.35;6.30;;;12.10;99.90;;;;;;5072198;28;20162;-78
2022/10/26 02:42:54;;;;;;;12.93;6.38;;;12.10;99.90;;;;;;5072147;28;20013;-78
2022/10/26 02:45:24;;;;;;;10.70;5.93;;;12.10;99.90;;;;;;5073503;28;20130;-78
2022/10/26 02:47:51;;;;;;;11.63;4.95;;;12.10;99.90;;;;;;5071987;28;20408;-78
2022/10/26 02:50:21;;;;;;;13.80;5.80;;;12.10;99.90;;;;;;5072581;28;20061;-77
2022/10/26 02:52:47;;;;;;;10.15;5.78;;;12.10;99.90;;;;;;5072017;28;20084;-78
2022/10/26 02:55:24;;;;;;;14.82;5.80;;;12.10;99.90;;;;;;5073246;28;20086;-78
2022/10/26 02:57:58;;;;;;;9.98;5.45;;;12.10;99.90;;;;;;5088760;28;20024;-77
2022/10/26 03:00:23;;;;;;;11.45;5.80;;;12.10;99.90;;;;;;5073373;28;20533;-77
2022/10/26 03:02:58;;;;;;;14.02;5.82;;;12.10;99.90;;;;;;5073148;28;20123;-78
2022/10/26 03:05:29;;;;;;;10.50;5.65;;;12.10;99.90;;;;;;5077218;28;20028;-78
2022/10/26 03:07:55;;;;;;;11.68;5.28;;;12.10;99.90;;;;;;5076008;28;20540;-77
2022/10/26 03:10:21;;;;;;;9.05;4.90;;;12.10;99.90;;;;;;5059694;28;20028;-77
2022/10/26 03:12:48;;;;;;;13.05;5.97;;;12.20;99.90;;;;;;5077115;28;20032;-78
2022/10/26 03:15:14;;;;;;;13.02;4.88;;;12.20;99.90;;;;;;5059619;28;20037;-78
2022/10/26 03:17:40;;;;;;;12.00;5.72;;;12.20;99.90;;;;;;5076214;28;20028;-78
2022/10/26 03:20:07;;;;;;;12.40;5.55;;;12.20;99.90;;;;;;5076932;28;20384;-78
2022/10/26 03:22:32;;;;;;;13.45;5.85;;;12.20;99.90;;;;;;5075637;28;20044;-78
2022/10/26 03:24:58;;;;;;;12.63;5.43;;;12.20;99.90;;;;;;5058924;28;20059;-78
2022/10/26 03:27:25;;;;;;;14.43;5.90;;;12.20;99.90;;;;;;5058966;28;20491;-78
2022/10/26 03:29:51;;;;;;;10.98;6.35;;;12.30;99.90;;;;;;5075581;28;20040;-78
2022/10/26 03:32:17;;;;;;;12.43;6.10;;;12.30;99.90;;;;;;5075493;28;20111;-78
2022/10/26 03:34:43;;;;;;;12.57;5.95;;;12.20;99.90;;;;;;5075248;28;20075;-78
2022/10/26 03:37:08;;;;;;;8.43;5.28;;;12.30;99.90;;;;;;5075405;28;20115;-77
2022/10/26 03:39:34;;;;;;;13.93;5.78;;;12.30;99.90;;;;;;5075608;28;20530;-77
2022/10/26 03:41:59;;;;;;;14.25;5.78;;;12.20;99.90;;;;;;5075365;28;20040;-77
2022/10/26 03:44:25;;;;;;;11.40;6.53;;;12.30;99.90;;;;;;5075378;28;20028;-78
2022/10/26 03:46:51;;;;;;;12.30;6.47;;;12.30;99.90;;;;;;5075601;28;20389;-77
2022/10/26 03:49:16;;;;;;;12.40;6.47;;;12.30;99.90;;;;;;5075187;28;20032;-77
2022/10/26 03:51:42;;;;;;;13.30;6.80;;;12.30;99.90;;;;;;5058409;28;20086;-77
2022/10/26 03:54:08;;;;;;;11.75;6.40;;;12.30;99.90;;;;;;5075008;28;20036;-77
2022/10/26 03:56:33;;;;;;;12.02;5.65;;;12.30;99.90;;;;;;5075017;28;20028;-77
2022/10/26 03:58:59;;;;;;;15.32;6.53;;;12.20;99.90;;;;;;5074882;28;20477;-77
2022/10/26 04:01:25;;;;;;;11.18;5.50;;;12.20;99.90;;;;;;5091757;28;20123;-77
2022/10/26 04:03:50;;;;;;;10.63;5.63;;;12.20;99.90;;;;;;5074785;28;20385;-79
2022/10/26 04:06:16;;;;;;;15.52;6.32;;;12.20;99.90;;;;;;5091519;28;20491;-79
2022/10/26 04:08:41;;;;;;;10.25;5.55;;;12.20;99.90;;;;;;5074627;28;20039;-78
2022/10/26 04:11:07;;;;;;;9.63;5.13;;;12.20;99.90;;;;;;5074657;28;20032;-78
2022/10/26 04:13:33;;;;;;;9.93;5.38;;;12.20;99.90;;;;;;5091780;28;20473;-78
2022/10/26 04:15:58;;;;;;;14.45;6.75;;;12.20;99.90;;;;;;5074708;28;20496;-78
2022/10/26 04:18:24;;;;;;;9.88;5.57;;;12.10;99.90;;;;;;5074603;28;20033;-78
2022/10/26 04:20:49;;;;;;;11.55;5.47;;;12.10;99.90;;;;;;5091359;28;20469;-78
2022/10/26 04:23:17;;;;;;;11.85;5.97;;;12.10;99.90;;;;;;5057971;28;20032;-78
2022/10/26 04:25:43;;;;;;;14.90;5.93;;;12.10;99.90;;;;;;5091337;28;20431;-79
2022/10/26 04:28:11;;;;;;;8.68;5.50;;;12.10;99.90;;;;;;5091432;28;20488;-79
2022/10/26 04:30:37;;;;;;;12.90;5.85;;;12.10;99.90;;;;;;5075625;28;20020;-78
2022/10/26 04:33:04;;;;;;;13.43;5.95;;;12.10;99.90;;;;;;5074551;28;20491;-77
2022/10/26 04:35:30;;;;;;;11.32;5.53;;;12.10;99.90;;;;;;5074239;28;20115;-78
2022/10/26 04:37:57;;;;;;;11.02;5.45;;;12.10;99.90;;;;;;5074073;28;20033;-78
2022/10/26 04:40:23;;;;;;;10.13;5.85;;;12.10;99.90;;;;;;5074561;28;20048;-78
2022/10/26 04:42:49;;;;;;;11.38;6.13;;;12.10;99.90;;;;;;5074649;28;20029;-77
2022/10/26 04:45:15;;;;;;;9.02;5.22;;;12.10;99.90;;;;;;5074073;28;20464;-78
2022/10/26 04:47:43;;;;;;;10.38;5.95;;;12.10;99.90;;;;;;5074138;28;20436;-79
2022/10/26 04:50:11;;;;;;;12.02;5.55;;;12.10;99.90;;;;;;5074284;28;20032;-78
2022/10/26 04:52:37;;;;;;;10.27;5.30;;;12.10;99.90;;;;;;5075221;28;20039;-78
2022/10/26 04:55:04;;;;;;;14.55;6.68;;;12.20;99.90;;;;;;5074367;28;20035;-78
2022/10/26 04:57:32;;;;;;;14.07;6.45;;;12.20;99.90;;;;;;5073904;28;20051;-78
2022/10/26 04:59:59;;;;;;;12.60;5.15;;;12.20;99.90;;;;;;5057291;28;20063;-78
2022/10/26 05:02:24;;;;;;;12.18;5.88;;;12.20;99.90;;;;;;5075093;28;20021;-79
2022/10/26 05:04:50;;;;;;;9.98;5.53;;;12.20;99.90;;;;;;5073833;28;20031;-78
2022/10/26 05:07:15;;;;;;;12.73;5.68;;;12.20;99.90;;;;;;5073646;28;20036;-78
2022/10/26 05:09:41;;;;;;;13.52;5.07;;;12.20;99.90;;;;;;5056970;28;20392;-78
2022/10/26 05:12:07;;;;;;;12.25;5.55;;;12.20;99.90;;;;;;5073520;28;20029;-79
2022/10/26 05:14:33;;;;;;;10.85;5.55;;;12.20;99.90;;;;;;5073582;28;20033;-78
2022/10/26 05:16:58;;;;;;;14.45;5.78;;;12.30;99.90;;;;;;5073238;28;20045;-80
2022/10/26 05:19:24;;;;;;;11.25;5.55;;;12.20;99.90;;;;;;5073824;28;20456;-79
2022/10/26 05:21:52;;;;;;;9.65;5.15;;;12.30;99.90;;;;;;5074695;28;20035;-78
2022/10/26 05:24:18;;;;;;;11.93;5.90;;;12.30;99.90;;;;;;5073676;28;20034;-78
2022/10/26 05:26:43;;;;;;;12.40;5.30;;;12.30;99.90;;;;;;5089620;28;20025;-79
2022/10/26 05:29:09;;;;;;;10.73;5.13;;;12.40;99.90;;;;;;5073245;28;20033;-78
2022/10/26 05:31:35;;;;;;;9.98;4.90;;;12.30;99.90;;;;;;5073096;28;20063;-79
2022/10/26 05:34:00;;;;;;;13.48;4.85;;;12.40;99.90;;;;;;5090057;28;20039;-78
2022/10/26 05:36:26;;;;;;;9.38;4.85;;;12.40;99.90;;;;;;5089852;28;20016;-78
2022/10/26 05:38:52;;;;;;;10.13;5.22;;;12.40;99.90;;;;;;5089782;28;20469;-79
2022/10/26 05:41:18;;;;;;;10.50;5.90;;;12.40;99.90;;;;;;5074427;28;20036;-78
2022/10/26 05:43:46;;;;;;;13.60;6.40;;;12.40;99.90;;;;;;5049759;28;20025;-80
2022/10/26 05:46:12;;;;;;;13.65;5.53;;;12.50;99.90;;;;;;5074129;28;20028;-79
2022/10/26 05:48:37;;;;;;;11.65;5.03;;;12.50;99.90;;;;;;5056156;28;20651;-79
2022/10/26 05:51:03;;;;;;;10.38;4.95;;;12.50;99.90;;;;;;5069640;28;20037;-79
2022/10/26 05:53:29;;;;;;;11.68;4.65;;;12.50;99.90;;;;;;5064894;28;20118;-79
2022/10/26 05:55:55;;;;;;;11.65;5.95;;;12.50;99.90;;;;;;5047456;28;20120;-79
2022/10/26 05:58:22;;;;;;;8.18;4.70;;;12.50;99.90;;;;;;5060076;28;20125;-80
2022/10/26 06:01:06;;;;;;;11.68;5.15;;;12.50;99.90;;;;;;5057954;28;20032;-79
2022/10/26 06:04:01;;;;;;;15.70;4.75;;;12.50;99.90;;;;;;5064451;28;20025;-80
2022/10/26 06:06:28;;;;;;;;;;;12.50;99.90;;;;;;5053003;28;20052;-79
2022/10/26 06:08:54;;;;;;;8.88;4.10;;;12.50;99.90;;;;;;5068892;28;19908;-79
2022/10/26 06:11:20;;;;;;;10.48;4.40;;;12.50;99.90;;;;;;5089501;28;20029;-79
2022/10/26 06:13:46;;;;;;;11.30;4.75;;;12.50;99.90;;;;;;5056088;28;20115;-79
2022/10/26 06:16:32;;;;;;;11.32;5.10;;;12.50;99.90;;;;;;5055545;28;20052;-79
2022/10/26 06:19:10;;;;;;;11.95;6.07;;;12.50;99.90;;;;;;5089066;28;20024;-79
2022/10/26 06:22:06;;;;;;;12.60;4.68;;;12.40;99.90;;;;;;5072282;28;20384;-79
2022/10/26 06:24:47;;;;;;;12.23;4.75;;;12.40;99.90;;;;;;5072843;28;20032;-79
2022/10/26 06:27:44;;;;;;;9.77;4.50;;;12.40;99.90;;;;;;5085598;28;20481;-79
2022/10/26 06:30:11;;;;;;;8.23;4.68;;;12.40;99.90;;;;;;5065962;28;20028;-79
2022/10/26 06:32:44;;;;;;;10.00;5.68;;;12.30;99.90;;;;;;5071964;28;20029;-79
2022/10/26 06:35:22;;;;;;;11.25;5.57;;;12.30;99.90;;;;;;5089298;28;20020;-79
2022/10/26 06:37:49;;;;;;;9.05;4.38;;;12.30;99.90;;;;;;5088230;28;20050;-79
2022/10/26 06:40:16;;;;;;;12.95;4.60;;;12.30;99.90;;;;;;5073310;28;20055;-79
2022/10/26 06:42:42;;;;;;;11.40;5.85;;;12.30;99.90;;;;;;5072110;28;20048;-79
2022/10/26 06:45:13;;;;;;;11.30;4.80;;;12.30;99.90;;;;;;5088758;28;20023;-79
2022/10/26 06:48:08;;;;;;;10.60;4.57;;;12.30;99.90;;;;;;5055718;28;20032;-78
2022/10/26 06:50:38;;;;;;;9.32;3.75;;;12.30;99.90;;;;;;5071303;28;20492;-78
2022/10/26 06:53:22;;;;;;;9.15;4.53;;;12.30;99.90;;;;;;5088772;28;20055;-79
2022/10/26 06:55:49;;;;;;;9.05;5.03;;;12.30;99.90;;;;;;5088763;28;20020;-79
2022/10/26 06:58:18;;;;;;;10.18;4.00;;;12.30;99.90;;;;;;5088739;28;20033;-79
2022/10/26 07:00:45;;;;;;;10.82;4.57;;;12.30;99.90;;;;;;5088758;28;20025;-79
2022/10/26 07:03:11;;;;;;;9.88;4.38;;;12.30;99.90;;;;;;5073238;28;20448;-79
2022/10/26 07:05:37;;;;;;;9.45;4.40;;;12.40;99.90;;;;;;5073749;28;20057;-78
2022/10/26 07:08:04;;;;;;;10.77;4.07;;;12.40;99.90;;;;;;5089193;28;20056;-79
2022/10/26 07:10:30;;;;;;;8.43;4.38;;;12.40;99.90;;;;;;5073167;28;20032;-79
2022/10/26 07:12:56;;;;;;;14.95;4.72;;;12.40;99.90;;;;;;5071730;28;20123;-79
2022/10/26 07:15:21;;;;;;;8.95;4.28;;;12.50;99.90;;;;;;5071795;28;20059;-79
2022/10/26 07:17:48;;;;;;;11.82;4.05;;;12.50;99.90;;;;;;5088577;28;20021;-79
2022/10/26 07:20:20;;;;;;;9.45;4.05;;;12.50;99.90;;;;;;5072962;28;20025;-79
2022/10/26 07:22:54;;;;;;;9.88;3.70;;;12.60;99.90;;;;;;5072904;28;20489;-79
2022/10/26 07:25:21;;;;;;;10.77;4.00;;;12.70;99.90;;;;;;5068236;28;20029;-79
2022/10/26 07:27:48;;;;;;;12.30;4.25;;;12.70;99.90;;;;;;5052471;28;20388;-79
2022/10/26 07:30:14;;;;;;;8.52;3.33;;;12.80;99.90;;;;;;5051555;28;20435;-79
2022/10/26 07:32:39;;;;;;;9.73;4.07;;;12.80;99.90;;;;;;5068162;28;20171;-79
2022/10/26 07:35:05;;;;;;;11.20;4.38;;;12.90;99.90;;;;;;5051442;28;20025;-79
2022/10/26 07:37:31;;;;;;;14.45;4.30;;;12.90;99.90;;;;;;5056292;28;20130;-79
2022/10/26 07:39:57;;;;;;;7.32;3.60;;;13.00;99.90;;;;;;5072966;28;20384;-79
2022/10/26 07:42:22;;;;;;;7.80;3.10;;;13.10;99.90;;;;;;5054848;28;20037;-78
2022/10/26 07:44:48;;;;;;;10.45;4.15;;;13.10;99.90;;;;;;5054613;28;20037;-78
2022/10/26 07:47:14;;;;;;;6.22;3.05;;;13.20;99.90;;;;;;5088737;28;20028;-79
2022/10/26 07:49:39;;;;;;;10.18;3.40;;;13.30;99.90;;;;;;5056381;28;20119;-79
2022/10/26 07:52:05;;;;;;;10.52;3.90;;;13.30;99.90;;;;;;5058545;28;20043;-78
2022/10/26 07:54:31;;;;;;;9.55;2.90;;;13.30;99.90;;;;;;5058345;28;20041;-78
2022/10/26 07:56:57;;;;;;;5.10;2.92;;;13.40;99.90;;;;;;5076002;28;20111;-78
2022/10/26 07:59:22;;;;;;;8.30;2.45;;;13.40;99.90;;;;;;5091796;28;20026;-78
2022/10/26 08:01:48;;;;;;;8.80;2.85;;;13.50;99.90;;;;;;5075141;28;20036;-78
2022/10/26 08:04:14;;;;;;;7.90;3.08;;;13.50;99.90;;;;;;5058459;28;20584;-78
2022/10/26 08:06:40;;;;;;;6.50;3.28;;;13.60;99.90;;;;;;5058593;28;20381;-80
2022/10/26 08:09:05;;;;;;;7.00;2.58;;;13.60;99.90;;;;;;5075260;28;20029;-79
2022/10/26 08:11:31;;;;;;;5.80;2.53;;;13.70;99.90;;;;;;5074722;28;20131;-79
2022/10/26 08:13:57;;;;;;;6.78;2.10;;;13.70;99.90;;;;;;5075158;28;20032;-79
2022/10/26 08:16:23;;;;;;;5.30;2.30;;;13.80;99.90;;;;;;5057997;28;20139;-79
2022/10/26 08:18:51;;;;;;;6.05;2.58;;;13.80;99.90;;;;;;5074798;28;20465;-79
2022/10/26 08:21:17;;;;;;;7.45;2.97;;;13.90;99.90;;;;;;5092021;28;20033;-80
2022/10/26 08:23:43;;;;;;;7.60;2.38;;;13.90;99.90;;;;;;5075836;28;20030;-79
2022/10/26 08:26:12;;;;;;;6.53;1.92;;;14.00;99.90;;;;;;5091713;28;20027;-79
2022/10/26 08:28:38;;;;;;;4.68;1.88;;;14.10;99.90;;;;;;5091296;28;20101;-78
2022/10/26 08:31:04;;;;;;;5.95;2.03;;;14.10;99.90;;;;;;5074755;28;20037;-78
2022/10/26 08:33:30;;;;;;;7.03;1.83;;;14.20;99.90;;;;;;5091272;28;20503;-79
2022/10/26 08:35:57;;;;;;;6.43;2.42;;;14.20;99.90;;;;;;5091226;28;20036;-78
2022/10/26 08:38:23;;;;;;;5.03;1.52;;;14.30;99.90;;;;;;5075384;28;20021;-78
2022/10/26 08:40:50;;;;;;;3.67;1.30;;;14.40;99.90;;;;;;5074542;28;20032;-79
2022/10/26 08:43:35;;;;;;;5.15;1.67;;;14.40;99.90;;;;;;5075422;28;20577;-78
2022/10/26 08:46:11;;;;;;;6.68;1.38;;;14.50;99.90;;;;;;5074172;28;20078;-78
2022/10/26 08:48:46;;;;;;;8.45;1.95;;;14.60;99.90;;;;;;5091275;28;20028;-78
2022/10/26 08:51:29;;;;;;;6.35;1.77;;;14.70;99.90;;;;;;5091357;28;20384;-78
2022/10/26 08:54:31;;;;;;;4.43;1.15;;;14.70;99.90;;;;;;5091473;28;20052;-78
2022/10/26 08:57:03;;;;;;;4.93;1.10;;;14.80;99.90;;;;;;5070658;28;20040;-79
2022/10/26 08:59:45;;;;;;;4.28;1.15;;;15.00;99.90;;;;;;5090793;28;20043;-78
2022/10/26 09:02:13;;;;;;;5.00;0.93;;;15.10;99.90;;;;;;5074303;28;20115;-78
2022/10/26 09:04:39;;;;;;;5.65;1.30;;;15.20;99.90;;;;;;5073880;28;20024;-78
2022/10/26 09:07:16;;;;;;;4.72;1.17;;;15.40;99.90;;;;;;5090608;28;20362;-80
2022/10/26 09:10:00;;;;;;;3.92;1.30;;;15.50;99.90;;;;;;5073628;28;20060;-79
2022/10/26 09:12:39;;;;;;;5.65;1.30;;;15.80;99.90;;;;;;5073576;28;20035;-78
2022/10/26 09:15:39;;;;;;;6.75;0.90;;;15.90;99.90;;;;;;5090520;28;20404;-79
2022/10/26 09:18:25;;;;;;;5.75;1.35;;;16.10;99.90;;;;;;5055336;28;20040;-78
2022/10/26 09:21:02;;;;;;;5.60;1.48;;;16.20;99.90;;;;;;5053487;28;20021;-79
2022/10/26 09:23:52;;;;;;;3.65;1.45;;;16.30;99.90;;;;;;5053490;28;20025;-78
2022/10/26 09:26:47;;;;;;;4.97;1.48;;;16.40;99.90;;;;;;5078686;28;20035;-77
2022/10/26 09:29:13;;;;;;;6.25;1.65;;;16.60;99.90;;;;;;5066558;28;20024;-77
2022/10/26 09:31:43;;;;;;;6.90;1.80;;;16.90;99.90;;;;;;5081671;28;20021;-77
2022/10/26 09:34:20;;;;;;;5.35;1.45;;;17.10;99.80;;;;;;5086082;28;20102;-78
2022/10/26 09:36:50;;;;;;;5.47;1.67;;;17.30;99.20;;;;;;5070886;28;20024;-77
2022/10/26 09:39:28;;;;;;;6.57;1.63;;;17.50;98.80;;;;;;5074351;28;20024;-78
2022/10/26 09:42:00;;;;;;;5.68;1.65;;;17.90;99.30;;;;;;5090015;28;20107;-77
2022/10/26 09:44:37;;;;;;;3.72;1.27;;;18.40;99.60;;;;;;5090092;28;20373;-78
2022/10/26 09:47:33;;;;;;;3.40;1.08;;;19.00;99.80;;;;;;5070317;28;20035;-78
2022/10/26 09:50:16;;;;;;;6.55;1.55;;;19.70;99.00;;;;;;5058742;28;20108;-78
2022/10/26 09:52:45;;;;;;;4.82;1.00;;;20.70;98.70;;;;;;5069908;28;20120;-81
2022/10/26 09:55:12;;;;;;;4.38;1.27;;;21.50;98.30;;;;;;5053747;28;20112;-78
2022/10/26 09:57:41;;;;;;;2.90;1.00;;;22.10;96.60;;;;;;5069517;28;20025;-78
2022/10/26 10:00:13;;;;;;;3.78;0.70;;;22.70;94.90;;;;;;5054336;28;20335;-79
2022/10/26 10:02:44;;;;;;;4.78;1.00;;;23.30;92.40;;;;;;5054428;28;20052;-78
2022/10/26 10:05:31;;;;;;;4.70;1.00;;;23.60;90.60;;;;;;5065002;28;20055;-78
2022/10/26 10:08:24;;;;;;;3.60;1.10;;;23.60;85.70;;;;;;5070799;28;20032;-80
2022/10/26 10:11:11;;;;;;;5.90;1.20;;;23.60;79.80;;;;;;5051323;28;20043;-77
2022/10/26 10:13:43;;;;;;;4.63;0.90;;;23.60;79.50;;;;;;5054612;28;20469;-78
2022/10/26 10:16:24;;;;;;;3.45;0.95;;;23.70;79.80;;;;;;5089289;28;20079;-78
2022/10/26 10:19:20;;;;;;;5.65;0.82;;;23.80;78.30;;;;;;5089144;28;20107;-78
2022/10/26 10:21:49;;;;;;;5.25;1.15;;;23.90;77.00;;;;;;5088862;28;20483;-78
2022/10/26 10:24:24;;;;;;;4.88;1.25;;;23.80;75.30;;;;;;5073826;28;20092;-77
2022/10/26 10:27:04;;;;;;;3.67;1.30;;;23.90;74.70;;;;;;5073489;28;20078;-77
2022/10/26 10:29:40;;;;;;;8.60;1.33;;;23.90;73.80;;;;;;5073578;28;20082;-78
2022/10/26 10:32:13;;;;;;;6.45;1.20;;;24.10;73.50;;;;;;5088686;28;20033;-78
2022/10/26 10:34:39;;;;;;;5.45;1.00;;;24.30;72.90;;;;;;5073695;28;20048;-78
2022/10/26 10:37:04;;;;;;;7.95;1.55;;;24.70;73.00;;;;;;5055879;28;20448;-78
2022/10/26 10:39:39;;;;;;;5.72;1.20;;;25.20;72.50;;;;;;5072375;28;20063;-80
2022/10/26 10:42:22;;;;;;;4.63;1.02;;;25.70;71.40;;;;;;5069303;28;20024;-78
2022/10/26 10:44:53;;;;;;;4.28;0.82;;;26.10;70.00;;;;;;5073030;28;20016;-77
2022/10/26 10:47:24;;;;;;;6.40;1.00;;;26.50;69.30;;;;;;5089374;28;20024;-78
2022/10/26 10:50:17;;;;;;;3.10;0.98;;;26.80;67.70;;;;;;5074015;28;20464;-78
2022/10/26 10:52:43;;;;;;;4.35;0.90;;;27.00;65.30;;;;;;5053365;28;20033;-77
2022/10/26 10:55:22;;;;;;;5.53;1.20;;;27.20;64.50;;;;;;5053315;28;20044;-77
2022/10/26 10:58:12;;;;;;;5.60;1.30;;;27.10;62.30;;;;;;5035866;28;20025;-77
2022/10/26 11:00:42;;;;;;;5.13;1.15;;;27.00;62.20;;;;;;5052079;28;20025;-77
2022/10/26 11:03:36;;;;;;;6.60;1.17;;;27.00;61.90;;;;;;5068510;28;20025;-77
2022/10/26 11:06:22;;;;;;;3.67;0.95;;;26.90;61.80;;;;;;5062446;28;20020;-77
2022/10/26 11:09:01;;;;;;;4.28;0.90;;;27.10;61.60;;;;;;5057161;28;20058;-77
2022/10/26 11:11:43;;;;;;;4.82;0.90;;;27.40;62.00;;;;;;5060927;28;20032;-77
2022/10/26 11:14:34;;;;;;;3.47;0.83;;;27.70;60.70;;;;;;5073425;28;20055;-78
2022/10/26 11:17:20;;;;;;;6.53;0.90;;;28.00;60.10;;;;;;5088216;28;20045;-78
2022/10/26 11:20:11;;;;;;;3.90;1.15;;;28.30;59.80;;;;;;5073293;28;20051;-80
2022/10/26 11:22:54;;;;;;;6.63;1.10;;;28.40;59.40;;;;;;5073087;28;20104;-77
2022/10/26 11:25:29;;;;;;;4.67;1.13;;;28.50;59.00;;;;;;5075152;28;20048;-78
2022/10/26 11:28:18;;;;;;;4.18;1.10;;;28.60;58.80;;;;;;5092594;28;20282;-78
2022/10/26 11:30:54;;;;;;;4.97;1.10;;;28.90;58.60;;;;;;5076874;28;20036;-77
2022/10/26 11:33:28;;;;;;;2.45;0.70;;;29.10;58.50;;;;;;5076907;28;20020;-77
2022/10/26 11:36:12;;;;;;;6.63;1.35;;;29.40;58.10;;;;;;5092241;28;20027;-80
2022/10/26 11:38:49;;;;;;;3.55;1.10;;;29.50;56.50;;;;;;5076974;28;20052;-79
2022/10/26 11:41:38;;;;;;;4.43;1.02;;;29.40;56.30;;;;;;5076611;28;20031;-82
2022/10/26 11:44:22;;;;;;;6.10;1.08;;;29.30;55.80;;;;;;5092430;28;20052;-85
2022/10/26 11:47:00;;;;;;;5.82;1.40;;;29.00;55.50;;;;;;5092181;28;20035;-83
2022/10/26 11:49:51;;;;;;;3.95;0.80;;;28.80;55.00;;;;;;5092118;28;20028;-84
2022/10/26 11:52:20;;;;;;;4.47;0.93;;;28.20;55.70;;;;;;5076459;28;20026;-83
2022/10/26 11:54:53;;;;;;;5.47;1.33;;;27.50;55.70;;;;;;5092012;28;20017;-83
2022/10/26 11:57:21;;;;;;;5.57;1.30;;;26.80;56.60;;;;;;5075420;28;20025;-82
2022/10/26 11:59:52;;;;;;;4.65;1.20;;;26.10;57.80;;;;;;5076156;28;20025;-79
2022/10/26 12:02:24;;;;;;;4.00;1.00;;;25.60;59.00;;;;;;5076130;28;20099;-79
2022/10/26 12:05:04;;;;;;;6.75;1.30;;;25.00;60.10;;;;;;5076271;28;20511;-78
2022/10/26 12:07:34;;;;;;;5.95;1.40;;;24.60;61.70;;;;;;5076460;28;20025;-80
2022/10/26 12:10:01;;;;;;;3.92;1.17;;;24.10;62.40;;;;;;5093338;28;20498;-79
2022/10/26 12:13:13;;;;;;;12.68;1.35;;;23.90;63.40;;;;;;5076982;28;20043;-81
2022/10/26 12:15:49;;;;;;;3.22;0.82;;;23.80;64.50;;;;;;5017826;28;20075;-82
2022/10/26 12:18:32;;;;;;;5.68;1.10;;;24.30;65.30;;;;;;5000355;28;20026;-81
2022/10/26 12:21:03;;;;;;;4.43;0.90;;;24.90;65.10;;;;;;5071062;28;20468;-81
2022/10/26 12:23:49;;;;;;;5.13;1.05;;;25.60;64.60;;;;;;5061475;28;20024;-79
2022/10/26 12:26:27;;;;;;;4.55;0.98;;;26.20;64.20;;;;;;5093957;28;20426;-82
2022/10/26 12:29:02;;;;;;;5.38;0.80;;;27.10;62.70;;;;;;5091948;28;20119;-83
2022/10/26 12:31:37;;;;;;;5.03;0.90;;;27.60;61.30;;;;;;5076971;28;20040;-79
2022/10/26 12:34:21;;;;;;;3.45;0.80;;;28.10;59.60;;;;;;5094680;28;20035;-79
2022/10/26 12:36:56;;;;;;;5.85;1.10;;;28.60;58.40;;;;;;5091349;28;20025;-79
2022/10/26 12:39:34;;;;;;;3.08;1.25;;;28.90;57.30;;;;;;5075888;28;20031;-81
2022/10/26 12:42:09;;;;;;;5.53;1.00;;;29.30;56.20;;;;;;5091290;28;20476;-79
2022/10/26 12:44:59;;;;;;;5.30;0.90;;;29.60;55.70;;;;;;5076547;28;20021;-83
2022/10/26 12:47:27;;;;;;;4.68;0.90;;;29.60;55.10;;;;;;5075696;28;20025;-82
2022/10/26 12:50:00;;;;;;;6.82;1.10;;;29.50;54.50;;;;;;5090995;28;20068;-81
2022/10/26 12:52:30;;;;;;;6.10;1.00;;;29.50;54.60;;;;;;5075878;28;20381;-82
2022/10/26 12:55:22;;;;;;;4.85;0.90;;;29.60;54.50;;;;;;5075255;28;20082;-82
2022/10/26 12:58:00;;;;;;;3.33;1.00;;;29.70;53.80;;;;;;5088965;28;20511;-82
2022/10/26 13:00:27;;;;;;;6.38;1.02;;;29.40;53.50;;;;;;5065729;28;20020;-82
2022/10/26 13:03:16;;;;;;;5.55;0.70;;;29.20;54.10;;;;;;5070619;28;20025;-82
2022/10/26 13:06:01;;;;;;;5.82;0.90;;;29.20;54.40;;;;;;5070628;28;20021;-80
2022/10/26 13:08:28;;;;;;;6.70;1.42;;;29.10;54.30;;;;;;5055319;28;20029;-85